sensor_id;sensor_type;location;lat;lon;timestamp;pressure;altitude;pressure_sealevel;temperature;humidity
72892;BME280;61032;50.782;6.818;2023-05-03T00:00:21;101689.56;;;7.58;68.11
72892;BME280;61032;50.782;6.818;2023-05-03T00:01:22;101682.16;;;7.59;67.95
72892;BME280;61032;50.782;6.818;2023-05-03T00:02:23;101689.00;;;7.56;67.82
72892;BME280;61032;50.782;6.818;2023-05-03T00:03:23;101685.19;;;7.57;68.04
72892;BME280;61032;50.782;6.818;2023-05-03T00:04:24;101681.41;;;7.43;68.18
72892;BME280;61032;50.782;6.818;2023-05-03T00:05:25;101686.34;;;7.41;68.46
72892;BME280;61032;50.782;6.818;2023-05-03T00:06:25;101682.00;;;7.35;68.81
72892;BME280;61032;50.782;6.818;2023-05-03T00:07:26;101685.00;;;7.39;68.49
72892;BME280;61032;50.782;6.818;2023-05-03T00:08:26;101678.72;;;7.33;68.26
72892;BME280;61032;50.782;6.818;2023-05-03T00:09:26;101685.81;;;7.39;68.62
72892;BME280;61032;50.782;6.818;2023-05-03T00:10:26;101677.06;;;7.32;68.78
72892;BME280;61032;50.782;6.818;2023-05-03T00:11:27;101679.53;;;7.34;68.58
72892;BME280;61032;50.782;6.818;2023-05-03T00:12:27;101680.63;;;7.38;68.13
72892;BME280;61032;50.782;6.818;2023-05-03T00:13:28;101685.00;;;7.39;68.48
72892;BME280;61032;50.782;6.818;2023-05-03T00:14:28;101683.09;;;7.34;68.23
72892;BME280;61032;50.782;6.818;2023-05-03T00:16:30;101676.53;;;7.35;68.80
72892;BME280;61032;50.782;6.818;2023-05-03T00:17:31;101674.06;;;7.34;68.92
72892;BME280;61032;50.782;6.818;2023-05-03T00:18:32;101677.06;;;7.32;68.75
72892;BME280;61032;50.782;6.818;2023-05-03T00:19:32;101678.16;;;7.36;68.55
72892;BME280;61032;50.782;6.818;2023-05-03T00:20:34;101674.88;;;7.34;68.36
72892;BME280;61032;50.782;6.818;2023-05-03T00:21:34;101677.63;;;7.34;68.16
72892;BME280;61032;50.782;6.818;2023-05-03T00:22:34;101672.16;;;7.34;68.26
72892;BME280;61032;50.782;6.818;2023-05-03T00:23:35;101675.16;;;7.28;68.27
72892;BME280;61032;50.782;6.818;2023-05-03T00:24:36;101672.75;;;7.26;68.40
72892;BME280;61032;50.782;6.818;2023-05-03T00:25:37;101669.19;;;7.26;67.90
72892;BME280;61032;50.782;6.818;2023-05-03T00:26:37;101670.25;;;7.30;68.45
72892;BME280;61032;50.782;6.818;2023-05-03T00:27:37;101678.72;;;7.33;68.22
72892;BME280;61032;50.782;6.818;2023-05-03T00:28:37;101668.59;;;7.29;68.32
72892;BME280;61032;50.782;6.818;2023-05-03T00:29:38;101680.13;;;7.26;69.10
72892;BME280;61032;50.782;6.818;2023-05-03T00:30:38;101676.31;;;7.21;68.60
72892;BME280;61032;50.782;6.818;2023-05-03T00:31:38;101674.94;;;7.19;68.97
72892;BME280;61032;50.782;6.818;2023-05-03T00:32:39;101674.41;;;7.17;68.86
72892;BME280;61032;50.782;6.818;2023-05-03T00:33:39;101671.91;;;7.26;68.49
72892;BME280;61032;50.782;6.818;2023-05-03T00:34:39;101667.28;;;7.26;67.98
72892;BME280;61032;50.782;6.818;2023-05-03T00:35:40;101678.22;;;7.21;67.82
72892;BME280;61032;50.782;6.818;2023-05-03T00:36:40;101678.50;;;7.14;68.13
72892;BME280;61032;50.782;6.818;2023-05-03T00:37:40;101675.50;;;7.16;68.34
72892;BME280;61032;50.782;6.818;2023-05-03T00:38:41;101682.09;;;7.05;67.86
72892;BME280;61032;50.782;6.818;2023-05-03T00:39:42;101677.72;;;6.94;69.55
72892;BME280;61032;50.782;6.818;2023-05-03T00:40:42;101675.28;;;6.97;68.70
72892;BME280;61032;50.782;6.818;2023-05-03T00:41:42;101677.72;;;6.99;69.03
72892;BME280;61032;50.782;6.818;2023-05-03T00:42:43;101676.38;;;6.91;69.39
72892;BME280;61032;50.782;6.818;2023-05-03T00:43:45;101682.94;;;6.95;69.36
72892;BME280;61032;50.782;6.818;2023-05-03T00:44:45;101688.13;;;6.92;69.46
72892;BME280;61032;50.782;6.818;2023-05-03T00:45:46;101682.38;;;6.88;69.27
72892;BME280;61032;50.782;6.818;2023-05-03T00:46:46;101680.78;;;6.82;69.63
72892;BME280;61032;50.782;6.818;2023-05-03T00:47:47;101685.41;;;6.81;69.94
72892;BME280;61032;50.782;6.818;2023-05-03T00:48:47;101686.78;;;6.79;70.41
72892;BME280;61032;50.782;6.818;2023-05-03T00:49:48;101686.25;;;6.77;70.51
72892;BME280;61032;50.782;6.818;2023-05-03T00:50:49;101680.25;;;6.65;70.07
72892;BME280;61032;50.782;6.818;2023-05-03T00:51:51;101692.28;;;6.64;70.37
72892;BME280;61032;50.782;6.818;2023-05-03T00:52:52;101686.53;;;6.55;70.65
72892;BME280;61032;50.782;6.818;2023-05-03T00:53:53;101690.38;;;6.59;70.90
72892;BME280;61032;50.782;6.818;2023-05-03T00:54:55;101684.91;;;6.59;70.32
72892;BME280;61032;50.782;6.818;2023-05-03T00:55:56;101688.72;;;6.58;70.19
72892;BME280;61032;50.782;6.818;2023-05-03T00:56:58;101677.78;;;6.58;70.35
72892;BME280;61032;50.782;6.818;2023-05-03T00:57:58;101686.00;;;6.63;70.36
72892;BME280;61032;50.782;6.818;2023-05-03T00:58:59;101680.53;;;6.63;69.88
72892;BME280;61032;50.782;6.818;2023-05-03T01:00:00;101690.06;;;6.66;70.18
72892;BME280;61032;50.782;6.818;2023-05-03T01:01:01;101685.97;;;6.73;69.41
72892;BME280;61032;50.782;6.818;2023-05-03T01:02:01;101688.69;;;6.73;69.60
72892;BME280;61032;50.782;6.818;2023-05-03T01:03:02;101685.16;;;6.68;69.26
72892;BME280;61032;50.782;6.818;2023-05-03T01:04:03;101683.25;;;6.58;70.52
72892;BME280;61032;50.782;6.818;2023-05-03T01:05:05;101672.88;;;6.55;70.10
72892;BME280;61032;50.782;6.818;2023-05-03T01:10:45;101681.91;;;6.40;71.27
72892;BME280;61032;50.782;6.818;2023-05-03T01:11:57;101678.34;;;6.35;71.39
72892;BME280;61032;50.782;6.818;2023-05-03T01:14:30;101674.53;;;6.36;71.22
72892;BME280;61032;50.782;6.818;2023-05-03T01:16:58;101676.13;;;6.27;72.26
72892;BME280;61032;50.782;6.818;2023-05-03T01:18:14;101673.97;;;6.34;71.63
72892;BME280;61032;50.782;6.818;2023-05-03T01:19:31;101669.59;;;6.33;71.76
72892;BME280;61032;50.782;6.818;2023-05-03T01:20:36;101666.59;;;6.39;71.63
72892;BME280;61032;50.782;6.818;2023-05-03T01:21:37;101666.88;;;6.43;71.39
72892;BME280;61032;50.782;6.818;2023-05-03T01:22:59;101669.06;;;6.41;71.21
72892;BME280;61032;50.782;6.818;2023-05-03T01:24:10;101677.00;;;6.42;70.49
72892;BME280;61032;50.782;6.818;2023-05-03T01:25:13;101664.66;;;6.45;71.03
72892;BME280;61032;50.782;6.818;2023-05-03T01:27:15;101666.31;;;6.46;70.17
72892;BME280;61032;50.782;6.818;2023-05-03T01:28:15;101673.13;;;6.48;70.04
72892;BME280;61032;50.782;6.818;2023-05-03T01:29:16;101669.63;;;6.43;71.58
72892;BME280;61032;50.782;6.818;2023-05-03T01:30:16;101669.34;;;6.39;70.67
72892;BME280;61032;50.782;6.818;2023-05-03T01:31:30;101676.16;;;6.37;71.04
72892;BME280;61032;50.782;6.818;2023-05-03T01:34:21;101670.69;;;6.42;70.35
72892;BME280;61032;50.782;6.818;2023-05-03T01:36:30;101670.69;;;6.27;71.64
72892;BME280;61032;50.782;6.818;2023-05-03T01:37:34;101674.22;;;6.27;70.75
72892;BME280;61032;50.782;6.818;2023-05-03T01:38:36;101673.69;;;6.25;70.80
72892;BME280;61032;50.782;6.818;2023-05-03T01:39:58;101668.78;;;6.22;70.84
72892;BME280;61032;50.782;6.818;2023-05-03T01:41:01;101671.25;;;6.18;71.96
72892;BME280;61032;50.782;6.818;2023-05-03T01:42:05;101672.88;;;6.19;70.91
72892;BME280;61032;50.782;6.818;2023-05-03T01:43:06;101672.34;;;6.23;71.40
72892;BME280;61032;50.782;6.818;2023-05-03T01:44:09;101675.34;;;6.21;71.57
72892;BME280;61032;50.782;6.818;2023-05-03T01:45:10;101673.94;;;6.24;71.29
72892;BME280;61032;50.782;6.818;2023-05-03T01:46:11;101668.50;;;6.29;70.41
72892;BME280;61032;50.782;6.818;2023-05-03T01:47:13;101675.59;;;6.30;70.83
72892;BME280;61032;50.782;6.818;2023-05-03T01:48:16;101674.22;;;6.27;70.08
72892;BME280;61032;50.782;6.818;2023-05-03T01:49:16;101668.50;;;6.29;71.13
72892;BME280;61032;50.782;6.818;2023-05-03T01:50:17;101673.13;;;6.28;70.83
72892;BME280;61032;50.782;6.818;2023-05-03T01:51:17;101670.97;;;6.20;70.58
72892;BME280;61032;50.782;6.818;2023-05-03T01:52:17;101675.31;;;6.16;71.75
72892;BME280;61032;50.782;6.818;2023-05-03T01:53:18;101672.34;;;6.23;71.15
72892;BME280;61032;50.782;6.818;2023-05-03T01:54:19;101669.88;;;6.21;70.39
72892;BME280;61032;50.782;6.818;2023-05-03T01:55:19;101672.03;;;6.24;70.63
72892;BME280;61032;50.782;6.818;2023-05-03T01:56:20;101675.59;;;6.19;69.97
72892;BME280;61032;50.782;6.818;2023-05-03T01:57:20;101672.88;;;6.14;70.50
72892;BME280;61032;50.782;6.818;2023-05-03T01:58:20;101673.66;;;6.05;71.11
72892;BME280;61032;50.782;6.818;2023-05-03T01:59:21;101679.94;;;6.00;71.01
72892;BME280;61032;50.782;6.818;2023-05-03T02:00:21;101678.31;;;6.04;71.21
72892;BME280;61032;50.782;6.818;2023-05-03T02:01:22;101684.56;;;6.05;71.34
72892;BME280;61032;50.782;6.818;2023-05-03T02:02:22;101684.88;;;6.08;71.50
72892;BME280;61032;50.782;6.818;2023-05-03T02:03:22;101685.97;;;6.17;70.60
72892;BME280;61032;50.782;6.818;2023-05-03T02:04:23;101689.00;;;6.21;70.31
72892;BME280;61032;50.782;6.818;2023-05-03T02:05:23;101695.28;;;6.22;70.92
72892;BME280;61032;50.782;6.818;2023-05-03T02:06:25;101683.78;;;6.19;70.78
72892;BME280;61032;50.782;6.818;2023-05-03T02:07:25;101690.88;;;6.15;71.01
72892;BME280;61032;50.782;6.818;2023-05-03T02:08:25;101687.06;;;6.11;70.49
72892;BME280;61032;50.782;6.818;2023-05-03T02:09:26;101687.03;;;6.06;70.89
72892;BME280;61032;50.782;6.818;2023-05-03T02:10:26;101683.25;;;6.02;71.61
72892;BME280;61032;50.782;6.818;2023-05-03T02:11:26;101684.84;;;5.98;70.84
72892;BME280;61032;50.782;6.818;2023-05-03T02:12:26;101686.75;;;5.93;71.62
72892;BME280;61032;50.782;6.818;2023-05-03T02:13:27;101690.25;;;5.88;70.95
72892;BME280;61032;50.782;6.818;2023-05-03T02:14:27;101696.56;;;5.89;71.26
72892;BME280;61032;50.782;6.818;2023-05-03T02:15:27;101691.91;;;5.89;71.36
72892;BME280;61032;50.782;6.818;2023-05-03T02:16:28;101691.66;;;5.91;70.57
72892;BME280;61032;50.782;6.818;2023-05-03T02:17:28;101692.75;;;5.90;71.08
72892;BME280;61032;50.782;6.818;2023-05-03T02:18:28;101690.25;;;5.88;70.92
72892;BME280;61032;50.782;6.818;2023-05-03T02:19:32;101689.75;;;5.91;70.90
72892;BME280;61032;50.782;6.818;2023-05-03T02:20:33;101687.84;;;5.97;71.23
72892;BME280;61032;50.782;6.818;2023-05-03T02:21:36;101689.22;;;5.99;70.88
72892;BME280;61032;50.782;6.818;2023-05-03T02:22:37;101693.31;;;5.97;70.26
72892;BME280;61032;50.782;6.818;2023-05-03T02:23:37;101691.38;;;5.92;70.69
72892;BME280;61032;50.782;6.818;2023-05-03T02:24:38;101689.69;;;5.86;70.83
72892;BME280;61032;50.782;6.818;2023-05-03T02:25:40;101692.41;;;5.76;70.91
72892;BME280;61032;50.782;6.818;2023-05-03T02:26:40;101693.78;;;5.83;70.45
72892;BME280;61032;50.782;6.818;2023-05-03T02:27:40;101689.72;;;5.81;71.19
72892;BME280;61032;50.782;6.818;2023-05-03T02:28:41;101694.03;;;5.82;70.89
72892;BME280;61032;50.782;6.818;2023-05-03T02:29:41;101694.06;;;5.87;70.37
72892;BME280;61032;50.782;6.818;2023-05-03T02:30:42;101695.72;;;5.88;70.67
72892;BME280;61032;50.782;6.818;2023-05-03T02:31:42;101692.75;;;5.90;70.47
72892;BME280;61032;50.782;6.818;2023-05-03T02:32:43;101703.94;;;5.93;70.19
72892;BME280;61032;50.782;6.818;2023-05-03T02:33:43;101701.16;;;5.83;70.91
72892;BME280;61032;50.782;6.818;2023-05-03T02:34:46;101703.91;;;5.88;70.28
72892;BME280;61032;50.782;6.818;2023-05-03T02:35:47;101711.88;;;5.95;70.23
72892;BME280;61032;50.782;6.818;2023-05-03T02:36:47;101711.03;;;5.94;70.54
72892;BME280;61032;50.782;6.818;2023-05-03T02:37:47;101712.41;;;5.92;70.28
72892;BME280;61032;50.782;6.818;2023-05-03T02:38:48;101707.50;;;5.94;69.67
72892;BME280;61032;50.782;6.818;2023-05-03T02:39:48;101714.25;;;5.81;70.73
72892;BME280;61032;50.782;6.818;2023-05-03T02:40:48;101715.31;;;5.70;71.30
72892;BME280;61032;50.782;6.818;2023-05-03T02:41:49;101713.66;;;5.69;70.84
72892;BME280;61032;50.782;6.818;2023-05-03T02:42:50;101715.59;;;5.73;70.91
72892;BME280;61032;50.782;6.818;2023-05-03T02:43:50;101708.19;;;5.64;71.14
72892;BME280;61032;50.782;6.818;2023-05-03T02:44:50;101719.13;;;5.69;71.07
72892;BME280;61032;50.782;6.818;2023-05-03T02:45:51;101718.31;;;5.73;71.10
72892;BME280;61032;50.782;6.818;2023-05-03T02:46:51;101716.91;;;5.66;70.26
72892;BME280;61032;50.782;6.818;2023-05-03T02:47:53;101719.91;;;5.59;70.64
72892;BME280;61032;50.782;6.818;2023-05-03T02:48:54;101712.25;;;5.56;71.40
72892;BME280;61032;50.782;6.818;2023-05-03T02:49:54;101712.25;;;5.61;71.28
72892;BME280;61032;50.782;6.818;2023-05-03T02:50:55;101713.91;;;5.57;70.42
72892;BME280;61032;50.782;6.818;2023-05-03T02:51:55;101713.63;;;5.59;71.47
72892;BME280;61032;50.782;6.818;2023-05-03T02:52:57;101716.91;;;5.61;71.65
72892;BME280;61032;50.782;6.818;2023-05-03T02:53:57;101711.44;;;5.56;70.59
72892;BME280;61032;50.782;6.818;2023-05-03T02:54:57;101704.88;;;5.51;70.94
72892;BME280;61032;50.782;6.818;2023-05-03T02:55:58;101703.50;;;5.49;72.17
72892;BME280;61032;50.782;6.818;2023-05-03T02:56:58;101708.13;;;5.48;71.65
72892;BME280;61032;50.782;6.818;2023-05-03T02:57:58;101706.50;;;5.52;72.08
72892;BME280;61032;50.782;6.818;2023-05-03T02:58:58;101706.47;;;5.47;72.13
72892;BME280;61032;50.782;6.818;2023-05-03T02:59:59;101710.81;;;5.43;71.25
72892;BME280;61032;50.782;6.818;2023-05-03T03:00:59;101706.19;;;5.39;72.11
72892;BME280;61032;50.782;6.818;2023-05-03T03:01:59;101699.59;;;5.30;71.66
72892;BME280;61032;50.782;6.818;2023-05-03T03:03:00;101708.59;;;5.30;71.97
72892;BME280;61032;50.782;6.818;2023-05-03T03:04:00;101694.97;;;5.30;72.10
72892;BME280;61032;50.782;6.818;2023-05-03T03:05:00;101702.06;;;5.31;72.58
72892;BME280;61032;50.782;6.818;2023-05-03T03:06:00;101703.66;;;5.27;72.08
72892;BME280;61032;50.782;6.818;2023-05-03T03:07:01;101712.41;;;5.29;72.45
72892;BME280;61032;50.782;6.818;2023-05-03T03:08:01;101705.00;;;5.20;71.95
72892;BME280;61032;50.782;6.818;2023-05-03T03:09:01;101701.47;;;5.24;72.36
72892;BME280;61032;50.782;6.818;2023-05-03T03:10:03;101695.50;;;5.32;72.17
72892;BME280;61032;50.782;6.818;2023-05-03T03:11:04;101693.03;;;5.26;71.60
72892;BME280;61032;50.782;6.818;2023-05-03T03:12:05;101692.72;;;5.22;72.33
72892;BME280;61032;50.782;6.818;2023-05-03T03:13:05;101691.16;;;5.31;71.70
72892;BME280;61032;50.782;6.818;2023-05-03T03:14:05;101691.16;;;5.31;71.57
72892;BME280;61032;50.782;6.818;2023-05-03T03:15:06;101699.88;;;5.33;71.20
72892;BME280;61032;50.782;6.818;2023-05-03T03:16:07;101692.78;;;5.32;71.51
72892;BME280;61032;50.782;6.818;2023-05-03T03:17:08;101695.78;;;5.31;71.27
72892;BME280;61032;50.782;6.818;2023-05-03T03:18:09;101702.56;;;5.28;71.64
72892;BME280;61032;50.782;6.818;2023-05-03T03:19:09;101700.72;;;5.34;71.46
72892;BME280;61032;50.782;6.818;2023-05-03T03:20:09;101700.94;;;5.27;71.56
72892;BME280;61032;50.782;6.818;2023-05-03T03:21:13;101699.84;;;5.28;71.49
72892;BME280;61032;50.782;6.818;2023-05-03T03:22:13;101690.63;;;5.34;71.82
72892;BME280;61032;50.782;6.818;2023-05-03T03:23:13;101695.81;;;5.36;72.14
72892;BME280;61032;50.782;6.818;2023-05-03T03:24:14;101696.06;;;5.34;71.39
72892;BME280;61032;50.782;6.818;2023-05-03T03:25:14;101693.84;;;5.26;72.09
72892;BME280;61032;50.782;6.818;2023-05-03T03:26:15;101689.50;;;5.30;71.63
72892;BME280;61032;50.782;6.818;2023-05-03T03:27:15;101692.78;;;5.32;71.43
72892;BME280;61032;50.782;6.818;2023-05-03T03:28:15;101688.44;;;5.36;70.71
72892;BME280;61032;50.782;6.818;2023-05-03T03:29:16;101686.50;;;5.32;70.76
72892;BME280;61032;50.782;6.818;2023-05-03T03:30:16;101696.81;;;5.25;71.84
72892;BME280;61032;50.782;6.818;2023-05-03T03:31:17;101690.03;;;5.27;71.63
72892;BME280;61032;50.782;6.818;2023-05-03T03:32:17;101690.63;;;5.34;71.81
72892;BME280;61032;50.782;6.818;2023-05-03T03:33:17;101683.00;;;5.36;71.20
72892;BME280;61032;50.782;6.818;2023-05-03T03:34:18;101688.41;;;5.31;71.11
72892;BME280;61032;50.782;6.818;2023-05-03T03:35:18;101686.81;;;5.35;71.55
72892;BME280;61032;50.782;6.818;2023-05-03T03:36:18;101682.44;;;5.34;71.68
72892;BME280;61032;50.782;6.818;2023-05-03T03:37:19;101680.28;;;5.41;71.50
72892;BME280;61032;50.782;6.818;2023-05-03T03:38:22;101681.91;;;5.42;70.48
72892;BME280;61032;50.782;6.818;2023-05-03T03:39:22;101677.53;;;5.41;71.09
72892;BME280;61032;50.782;6.818;2023-05-03T03:40:22;101674.28;;;5.44;71.36
72892;BME280;61032;50.782;6.818;2023-05-03T03:41:23;101666.94;;;5.45;71.16
72892;BME280;61032;50.782;6.818;2023-05-03T03:42:23;101668.31;;;5.47;70.98
72892;BME280;61032;50.782;6.818;2023-05-03T03:43:24;101672.88;;;5.32;71.39
72892;BME280;61032;50.782;6.818;2023-05-03T03:44:25;101672.56;;;5.23;71.65
72892;BME280;61032;50.782;6.818;2023-05-03T03:45:25;101675.00;;;5.14;72.01
72892;BME280;61032;50.782;6.818;2023-05-03T03:46:25;101668.97;;;5.12;72.13
72892;BME280;61032;50.782;6.818;2023-05-03T03:47:26;101663.81;;;5.16;71.70
72892;BME280;61032;50.782;6.818;2023-05-03T03:48:26;101666.00;;;5.14;72.23
72892;BME280;61032;50.782;6.818;2023-05-03T03:49:26;101680.88;;;5.01;72.08
72892;BME280;61032;50.782;6.818;2023-05-03T03:50:27;101670.25;;;4.95;72.36
72892;BME280;61032;50.782;6.818;2023-05-03T03:51:27;101673.53;;;4.97;72.91
72892;BME280;61032;50.782;6.818;2023-05-03T03:52:27;101673.53;;;5.02;72.46
72892;BME280;61032;50.782;6.818;2023-05-03T03:53:28;101665.91;;;5.04;72.49
72892;BME280;61032;50.782;6.818;2023-05-03T03:54:28;101670.84;;;5.07;72.41
72892;BME280;61032;50.782;6.818;2023-05-03T03:55:28;101675.22;;;5.08;72.23
72892;BME280;61032;50.782;6.818;2023-05-03T03:56:29;101667.81;;;5.03;72.64
72892;BME280;61032;50.782;6.818;2023-05-03T03:57:29;101666.66;;;4.89;73.15
72892;BME280;61032;50.782;6.818;2023-05-03T03:58:30;101670.78;;;4.92;73.30
72892;BME280;61032;50.782;6.818;2023-05-03T03:59:31;101666.16;;;4.92;72.29
72892;BME280;61032;50.782;6.818;2023-05-03T04:00:32;101671.81;;;4.86;73.27
72892;BME280;61032;50.782;6.818;2023-05-03T04:01:33;101664.19;;;4.88;73.91
72892;BME280;61032;50.782;6.818;2023-05-03T04:02:33;101663.09;;;4.83;73.80
72892;BME280;61032;50.782;6.818;2023-05-03T04:03:33;101669.63;;;4.82;74.23
72892;BME280;61032;50.782;6.818;2023-05-03T04:04:34;101662.81;;;4.85;74.03
72892;BME280;61032;50.782;6.818;2023-05-03T04:05:35;101665.28;;;4.87;74.57
72892;BME280;61032;50.782;6.818;2023-05-03T04:06:35;101660.41;;;4.89;73.93
72892;BME280;61032;50.782;6.818;2023-05-03T04:07:35;101662.59;;;4.92;74.08
72892;BME280;61032;50.782;6.818;2023-05-03T04:08:36;101664.50;;;4.91;73.35
72892;BME280;61032;50.782;6.818;2023-05-03T04:09:36;101666.72;;;4.99;73.68
72892;BME280;61032;50.782;6.818;2023-05-03T04:10:36;101665.91;;;4.99;72.79
72892;BME280;61032;50.782;6.818;2023-05-03T04:11:36;101668.09;;;5.02;72.94
72892;BME280;61032;50.782;6.818;2023-05-03T04:12:37;101663.97;;;4.99;72.80
72892;BME280;61032;50.782;6.818;2023-05-03T04:13:37;101662.09;;;5.00;72.51
72892;BME280;61032;50.782;6.818;2023-05-03T04:14:38;101658.22;;;4.91;72.68
72892;BME280;61032;50.782;6.818;2023-05-03T04:15:38;101666.41;;;4.91;73.23
72892;BME280;61032;50.782;6.818;2023-05-03T04:16:38;101653.91;;;4.95;72.98
72892;BME280;61032;50.782;6.818;2023-05-03T04:17:39;101659.34;;;4.95;73.64
72892;BME280;61032;50.782;6.818;2023-05-03T04:18:39;101653.09;;;4.99;72.51
72892;BME280;61032;50.782;6.818;2023-05-03T04:19:40;101656.63;;;5.00;73.39
72892;BME280;61032;50.782;6.818;2023-05-03T04:20:40;101648.75;;;5.03;72.70
72892;BME280;61032;50.782;6.818;2023-05-03T04:21:41;101658.31;;;5.06;72.41
72892;BME280;61032;50.782;6.818;2023-05-03T04:22:41;101649.06;;;5.12;71.63
72892;BME280;61032;50.782;6.818;2023-05-03T04:23:41;101647.19;;;5.12;71.82
72892;BME280;61032;50.782;6.818;2023-05-03T04:24:42;101642.53;;;5.13;71.54
72892;BME280;61032;50.782;6.818;2023-05-03T04:25:43;101647.72;;;5.14;72.00
72892;BME280;61032;50.782;6.818;2023-05-03T04:26:45;101643.63;;;5.12;71.84
72892;BME280;61032;50.782;6.818;2023-05-03T04:27:46;101648.25;;;5.11;71.33
72892;BME280;61032;50.782;6.818;2023-05-03T04:28:47;101643.81;;;5.00;71.65
72892;BME280;61032;50.782;6.818;2023-05-03T04:29:48;101644.34;;;4.92;72.14
72892;BME280;61032;50.782;6.818;2023-05-03T04:30:49;101640.47;;;4.83;72.06
72892;BME280;61032;50.782;6.818;2023-05-03T04:31:50;101653.03;;;4.89;72.13
72892;BME280;61032;50.782;6.818;2023-05-03T04:32:51;101646.81;;;4.94;72.26
72892;BME280;61032;50.782;6.818;2023-05-03T04:33:54;101645.19;;;4.98;71.94
72892;BME280;61032;50.782;6.818;2023-05-03T04:34:55;101649.50;;;4.89;72.13
72892;BME280;61032;50.782;6.818;2023-05-03T04:35:56;101651.69;;;4.92;72.54
72892;BME280;61032;50.782;6.818;2023-05-03T04:36:57;101646.81;;;4.94;72.36
72892;BME280;61032;50.782;6.818;2023-05-03T04:37:57;101658.78;;;4.93;72.32
72892;BME280;61032;50.782;6.818;2023-05-03T04:38:57;101652.25;;;4.94;72.55
72892;BME280;61032;50.782;6.818;2023-05-03T04:39:58;101666.41;;;4.91;72.64
72892;BME280;61032;50.782;6.818;2023-05-03T04:40:58;101663.16;;;4.94;72.47
72892;BME280;61032;50.782;6.818;2023-05-03T04:41:58;101660.47;;;4.99;72.43
72892;BME280;61032;50.782;6.818;2023-05-03T04:42:58;101667.81;;;5.03;72.60
72892;BME280;61032;50.782;6.818;2023-05-03T04:43:59;101671.69;;;5.12;71.24
72892;BME280;61032;50.782;6.818;2023-05-03T04:44:59;101676.34;;;5.12;71.72
72892;BME280;61032;50.782;6.818;2023-05-03T04:46:02;101673.06;;;5.10;71.79
72892;BME280;61032;50.782;6.818;2023-05-03T04:47:03;101672.50;;;5.08;72.52
72892;BME280;61032;50.782;6.818;2023-05-03T04:48:04;101676.25;;;5.02;72.73
72892;BME280;61032;50.782;6.818;2023-05-03T04:49:05;101683.34;;;4.98;72.64
72892;BME280;61032;50.782;6.818;2023-05-03T04:50:06;101686.34;;;5.01;72.08
72892;BME280;61032;50.782;6.818;2023-05-03T04:51:09;101680.06;;;5.01;73.26
72892;BME280;61032;50.782;6.818;2023-05-03T04:52:09;101685.53;;;5.01;73.26
72892;BME280;61032;50.782;6.818;2023-05-03T04:53:10;101691.28;;;5.04;74.06
72892;BME280;61032;50.782;6.818;2023-05-03T04:54:10;101693.81;;;5.16;73.19
72892;BME280;61032;50.782;6.818;2023-05-03T04:55:11;101691.63;;;5.18;72.14
72892;BME280;61032;50.782;6.818;2023-05-03T04:56:11;101693.81;;;5.16;72.28
72892;BME280;61032;50.782;6.818;2023-05-03T04:57:11;101695.19;;;5.18;71.99
72892;BME280;61032;50.782;6.818;2023-05-03T04:58:12;101692.72;;;5.22;72.21
72892;BME280;61032;50.782;6.818;2023-05-03T04:59:12;101692.72;;;5.22;72.03
72892;BME280;61032;50.782;6.818;2023-05-03T05:00:13;101696.53;;;5.21;71.73
72892;BME280;61032;50.782;6.818;2023-05-03T05:01:13;101695.44;;;5.17;71.54
72892;BME280;61032;50.782;6.818;2023-05-03T05:02:14;101700.34;;;5.15;72.37
72892;BME280;61032;50.782;6.818;2023-05-03T05:03:15;101695.44;;;5.17;72.20
72892;BME280;61032;50.782;6.818;2023-05-03T05:04:15;101697.91;;;5.24;72.26
72892;BME280;61032;50.782;6.818;2023-05-03T05:05:15;101701.47;;;5.24;72.02
72892;BME280;61032;50.782;6.818;2023-05-03T05:06:16;101698.72;;;5.19;72.22
72892;BME280;61032;50.782;6.818;2023-05-03T05:07:16;101706.09;;;5.24;72.00
72892;BME280;61032;50.782;6.818;2023-05-03T05:08:17;101697.13;;;5.28;72.77
72892;BME280;61032;50.782;6.818;2023-05-03T05:09:22;101688.44;;;5.36;72.39
72892;BME280;61032;50.782;6.818;2023-05-03T05:10:22;101693.34;;;5.34;72.95
72892;BME280;61032;50.782;6.818;2023-05-03T05:11:22;101688.16;;;5.33;72.35
72892;BME280;61032;50.782;6.818;2023-05-03T05:12:23;101681.34;;;5.35;72.59
72892;BME280;61032;50.782;6.818;2023-05-03T05:13:23;101684.38;;;5.44;72.67
72892;BME280;61032;50.782;6.818;2023-05-03T05:14:25;101687.41;;;5.47;73.08
72892;BME280;61032;50.782;6.818;2023-05-03T05:15:27;101696.44;;;5.58;72.50
72892;BME280;61032;50.782;6.818;2023-05-03T05:16:27;101689.66;;;5.61;71.60
72892;BME280;61032;50.782;6.818;2023-05-03T05:17:27;101698.09;;;5.59;71.92
72892;BME280;61032;50.782;6.818;2023-05-03T05:18:28;101694.53;;;5.64;71.73
72892;BME280;61032;50.782;6.818;2023-05-03T05:19:28;101703.56;;;5.69;70.77
72892;BME280;61032;50.782;6.818;2023-05-03T05:20:28;101693.47;;;5.70;70.52
72892;BME280;61032;50.782;6.818;2023-05-03T05:21:29;101697.84;;;5.71;70.59
72892;BME280;61032;50.782;6.818;2023-05-03T05:22:29;101703.84;;;5.73;71.07
72892;BME280;61032;50.782;6.818;2023-05-03T05:23:29;101695.97;;;5.81;70.94
72892;BME280;61032;50.782;6.818;2023-05-03T05:24:30;101708.53;;;5.87;70.19
72892;BME280;61032;50.782;6.818;2023-05-03T05:25:30;101697.38;;;5.89;69.59
72892;BME280;61032;50.782;6.818;2023-05-03T05:26:30;101698.19;;;5.90;70.59
72892;BME280;61032;50.782;6.818;2023-05-03T05:27:31;101702.03;;;5.94;70.26
72892;BME280;61032;50.782;6.818;2023-05-03T05:28:31;101704.53;;;6.00;69.82
72892;BME280;61032;50.782;6.818;2023-05-03T05:29:32;101701.78;;;6.05;69.71
72892;BME280;61032;50.782;6.818;2023-05-03T05:30:32;101705.34;;;6.11;70.62
72892;BME280;61032;50.782;6.818;2023-05-03T05:31:32;101704.81;;;6.14;69.58
72892;BME280;61032;50.782;6.818;2023-05-03T05:32:34;101711.38;;;6.18;69.37
72892;BME280;61032;50.782;6.818;2023-05-03T05:33:34;101712.19;;;6.18;69.72
72892;BME280;61032;50.782;6.818;2023-05-03T05:34:34;101712.47;;;6.22;69.86
72892;BME280;61032;50.782;6.818;2023-05-03T05:35:35;101716.00;;;6.28;69.42